Flight Track Log - Related Links

Times and Time Zones

All times are in EDT time to prevent confusion due to time zone crossing. See the HPK1984 flight status page for this flight to view local times or setup timezone preferences in your user account.

Time Position Orientation Groundspeed Altitude Reporting Facility
EDT Latitude Longitude Course Direction KTS MPH feet Rate Location/Type
Sat 12:41:12 PM 44.0611 -73.1767 188° South 165 190 8,500  Level Boston Center
Sat 12:42:10 PM 44.0067 -73.1878 188° South 170 196 8,500  Level Boston Center
Sat 12:43:10 PM 43.9714 -73.1931 186° South 170 196 8,500  Level Boston Center
Sat 12:44:11 PM 43.9211 -73.2039 189° South 165 190 8,500  Level Boston Center
Sat 12:45:12 PM 43.8775 -73.2119 188° South 160 184 8,500  Level Boston Center
Sat 12:46:12 PM 43.8336 -73.2200 188° South 160 184 8,500  Level Boston Center
Sat 12:47:12 PM 43.7897 -73.2281 188° South 160 184 8,500  Level Boston Center
Sat 12:48:10 PM 43.7461 -73.2361 188° South 160 184 8,500  Level Boston Center
Sat 12:49:22 PM 43.7022 -73.2442 188° South 160 184 8,500  Level Boston Center
Sat 12:50:23 PM 43.6439 -73.2519 186° South 160 184 8,500  Level Boston Center
Sat 12:51:23 PM 43.6019 -73.2600 188° South 160 184 8,500  Level Boston Center
Sat 12:52:17 PM 43.5625 -73.2681 188° South 156 180 8,500  Level Boston Center
Sat 12:52:54 PM 43.5353 -73.2733 188° South 156 180 8,500  Level Boston Center
Sat 12:53:24 PM 43.5144 -73.2731 179° South 160 184 8,500  Level Boston Center
Sat 12:53:54 PM 43.4914 -73.2844 200° South 161 185 8,500  Level Boston Center
Sat 12:54:55 PM 43.4475 -73.2894 185° South 162 186 8,500  Level Boston Center
Sat 12:56:02 PM 43.3956 -73.2972 186° South 161 185 8,500  Level Boston Center
Sat 12:57:02 PM 43.3536 -73.3081 191° South 161 185 8,500  Level Boston Center
Sat 12:58:04 PM 43.3097 -73.3161 188° South 161 185 8,500  Level Boston Center
Sat 12:59:04 PM 43.2639 -73.3239 187° South 161 185 8,500  Level Boston Center
Sat 01:00:05 PM 43.2181 -73.3347 190° South 162 186 8,500  Level Boston Center
Sat 01:01:05 PM 43.1722 -73.3397 185° South 162 186 8,500  Level Boston Center
Sat 01:02:05 PM 43.1261 -73.3475 187° South 161 185 8,500  Level Boston Center
Sat 01:03:06 PM 43.0825 -73.3553 187° South 162 186 8,500  Level Boston Center
Sat 01:04:00 PM 43.0428 -73.3661 191° South 162 186 8,500  Level Boston Center
Sat 01:05:14 PM 42.9864 -73.3739 186° South 160 184 8,500  Level Boston Center
Sat 01:06:15 PM 42.9425 -73.3817 187° South 161 185 8,500  Level Boston Center
Sat 01:07:16 PM 42.8986 -73.3894 187° South 160 184 8,500  Level Boston Center
Sat 01:08:11 PM 42.8569 -73.4003 191° South 160 184 8,500  Level Boston Center
Sat 01:09:11 PM 42.8131 -73.4081 187° South 161 185 8,500  Level Boston Center
Sat 01:10:11 PM 42.7692 -73.4131 185° South 161 185 8,500  Level Boston Center
Sat 01:11:18 PM 42.7192 -73.4236 189° South 160 184 8,500  Level Boston Center
Sat 01:12:18 PM 42.6753 -73.4314 187° South 160 184 8,500  Level Boston Center
Sat 01:13:19 PM 42.6294 -73.4361 184° South 160 184 8,500  Level Boston Center
Sat 01:14:13 PM 42.5919 -73.4469 192° South 161 185 8,500  Level Boston Center
Sat 01:15:14 PM 42.5439 -73.4547 187° South 161 185 8,500  Level Boston Center
Sat 01:16:27 PM 42.4917 -73.4622 186° South 162 186 8,500  Level Boston Center
Sat 01:17:27 PM 42.4436 -73.4725 189° South 163 188 8,500  Level Boston Center
Sat 01:18:18 PM 42.4081 -73.4778 186° South 161 185 8,500  Level Boston Center
Sat 01:19:34 PM 42.3497 -73.4850 185° South 176 203 8,500  Level Boston Center
Sat 01:20:34 PM 42.3058 -73.4983 193° South 181 208 8,500  Level Boston Center
Sat 01:21:35 PM 42.2619 -73.5061 187° South 176 203 8,500  Level Boston Center
Sat 01:22:35 PM 42.2161 -73.5136 187° South 176 203 8,500  Level Boston Center
Sat 01:23:35 PM 42.1703 -73.5214 187° South 171 197 8,500  Level Boston Center
Sat 01:24:36 PM 42.1242 -73.5289 187° South 171 197 8,500  Level Boston Center
Sat 01:25:36 PM 42.0803 -73.5367 187° South 171 197 8,500  Level Boston Center
Sat 01:26:46 PM 42.0344 -73.5442 187° South 166 191 8,500  Level Boston Center
Sat 01:27:47 PM 41.9822 -73.5517 186° South 166 191 8,500  Level Boston Center
Sat 01:28:48 PM 41.9364 -73.5619 189° South 161 185 8,500  Level Boston Center
Sat 01:29:48 PM 41.8903 -73.5694 187° South 161 185 8,500  Level Boston Center
Sat 01:30:49 PM 41.8569 -73.5744 186° South 161 185 8,500 -51 Level Boston Center
Sat 01:31:46 PM 41.8006 -73.5819 186° South 161 185 8,400 -254 Descending Boston Center
Sat 01:32:47 PM 41.7547 -73.5922 189° South 161 185 8,000 -496 Descending Boston Center
Sat 01:33:47 PM 41.7067 -73.6053 191° South 166 191 7,400 -520 Descending Boston Center
Sat 01:36:03 PM 41.6000 -73.6667 203° Southwest 177 204 6,300 -490 Descending New York TRACON
Sat 01:37:03 PM 41.5667 -73.7000 217° Southwest 174 200 5,800 -500 Descending New York TRACON
Sat 01:38:03 PM 41.5167 -73.7333 207° Southwest 163 188 5,300 -500 Descending New York TRACON
Sat 01:39:03 PM 41.4833 -73.7500 201° Southwest 165 190 4,800 -500 Descending New York TRACON
Sat 01:40:03 PM 41.4500 -73.7667 201° Southwest 167 192 4,300 -526 Descending New York TRACON
Sat 01:40:57 PM 41.4000 -73.7667 180° South 161 185 3,800 -421 Descending New York TRACON
Sat 01:41:57 PM 41.3500 -73.7500 166° South 152 175 3,500 -150 Descending New York TRACON
Sat 01:42:57 PM 41.3167 -73.7500 180° South 153 176 3,500  Level New York TRACON
Sat 01:43:57 PM 41.2667 -73.7500 180° South 150 173 3,500 -158 Level New York TRACON
Sat 01:44:51 PM 41.2333 -73.7500 180° South 153 176 3,200 -450 Descending New York TRACON
Sat 01:45:57 PM 41.1833 -73.7667 194° South 152 175 2,600 -524 Descending New York TRACON
Sat 01:46:57 PM 41.1500 -73.7667 180° South 140 161 2,100 -500 Descending New York TRACON
Sat 01:47:57 PM 41.1167 -73.7500 159° South 129 148 1,600 -600 Descending New York TRACON
Sat 01:48:57 PM 41.0833 -73.7333 159° South 98 113 900 -700 Descending New York TRACON
Sat 01:50:00 PM 41.0667 -73.7000 180° South  Level FlightAware Approximate
Sat 01:57:00 PM 41.0669 -73.7076 180° South  Level Estimated
Sat 01:58:00 PM 41.0667 -73.7000 180° South  Level FlightAware Approximate
Sat 01:59:00 PM 41.0669 -73.7076 180° South  Level Estimated

Login

Don't have an account? Register now (free) for customized features, flight alerts, and more!